Time;durP1;ratioP1;P1;durP2;ratioP2;P2;SDS_P1;SDS_P2;PMS_P1;PMS_P2;Temp;Humidity;BMP_temperature;BMP_pressure;BME280_temperature;BME280_humidity;BME280_pressure;Samples;Min_cycle;Max_cycle;Signal;HPM_P1;HPM_P2
2021/06/06 00:00:01;;;;;;;;;;;;;;;26.48;35.27;100896.34;5037411;28;1973;-31
2021/06/06 00:02:26;;;;;;;;;;;;;;;26.49;35.43;100889.94;5026971;28;979;-33
2021/06/06 00:04:51;;;;;;;;;;;;;;;26.53;35.24;100898.50;4997631;28;768;-31
2021/06/06 00:07:17;;;;;;;;;;;;;;;26.56;35.37;100891.94;4997910;28;849;-30
2021/06/06 00:09:42;;;;;;;;;;;;;;;26.57;35.36;100894.47;4997952;28;749;-28
2021/06/06 00:12:07;;;;;;;;;;;;;;;26.55;35.25;100884.84;4997387;28;808;-28
2021/06/06 00:14:33;;;;;;;;;;;;;;;26.52;35.60;100884.19;4997671;28;1113;-31
2021/06/06 00:16:59;;;;;;;;;;;;;;;26.52;35.68;100876.13;4997564;28;977;-30
2021/06/06 00:19:25;;;;;;;;;;;;;;;26.55;35.42;100871.34;4997580;28;769;-32
2021/06/06 00:21:50;;;;;;;;;;;;;;;26.55;35.58;100874.91;4997331;28;1974;-32
2021/06/06 00:24:16;;;;;;;;;;;;;;;26.57;35.89;100869.34;4998103;28;764;-27
2021/06/06 00:26:42;;;;;;;;;;;;;;;26.53;35.58;100864.28;4997137;28;745;-30
2021/06/06 00:29:07;;;;;;;;;;;;;;;26.51;35.89;100865.47;4997945;28;796;-31
2021/06/06 00:31:32;;;;;;;;;;;;;;;26.54;36.02;100859.75;5011374;28;2454;-28
2021/06/06 00:33:57;;;;;;;;;;;;;;;26.53;36.22;100860.75;4997937;28;983;-32
2021/06/06 00:36:23;;;;;;;;;;;;;;;26.60;36.01;100860.88;4997454;28;856;-29
2021/06/06 00:38:48;;;;;;;;;;;;;;;26.60;35.70;100860.88;4997497;28;757;-31
2021/06/06 00:41:14;;;;;;;;;;;;;;;26.67;35.80;100858.31;4996908;28;1914;-27
2021/06/06 00:43:39;;;;;;;;;;;;;;;26.70;35.79;100857.97;4997456;28;749;-31
2021/06/06 00:46:05;;;;;;;;;;;;;;;26.69;35.95;100857.13;4997213;28;822;-29
2021/06/06 00:48:30;;;;;;;;;;;;;;;26.72;35.64;100848.69;4996186;28;996;-27
2021/06/06 00:50:56;;;;;;;;;;;;;;;26.70;35.81;100852.56;4997411;28;784;-28
2021/06/06 00:53:38;;;;;;;;;;;;;;;26.68;35.83;100843.78;5033126;28;1200;-30
2021/06/06 00:56:04;;;;;;;;;;;;;;;26.70;35.64;100837.22;5036153;28;832;-28
2021/06/06 00:58:30;;;;;;;;;;;;;;;26.72;35.78;100843.28;5019013;28;828;-31
2021/06/06 01:00:55;;;;;;;;;;;;;;;26.75;35.68;100833.97;5036717;28;1902;-29
2021/06/06 01:03:22;;;;;;;;;;;;;;;26.76;35.55;100841.91;4993480;28;1031;-29
2021/06/06 01:05:51;;;;;;;;;;;;;;;26.78;35.85;100847.97;4997132;28;855;-30
2021/06/06 01:08:17;;;;;;;;;;;;;;;26.76;36.19;100846.44;4997219;28;756;-27
2021/06/06 01:10:42;;;;;;;;;;;;;;;26.80;35.75;100847.78;4979745;28;819;-28
2021/06/06 01:13:10;;;;;;;;;;;;;;;26.76;35.97;100850.00;4996989;28;1184;-28
2021/06/06 01:15:36;;;;;;;;;;;;;;;26.77;36.02;100838.19;4979843;28;782;-30
2021/06/06 01:18:07;;;;;;;;;;;;;;;26.78;36.10;100845.25;4996236;28;1019;-27
2021/06/06 01:20:42;;;;;;;;;;;;;;;26.80;35.97;100844.22;4997319;28;1969;-32
2021/06/06 01:23:25;;;;;;;;;;;;;;;26.82;36.26;100847.59;4996832;28;753;-31
2021/06/06 01:25:51;;;;;;;;;;;;;;;26.74;36.55;100835.84;4996636;28;765;-27
2021/06/06 01:28:17;;;;;;;;;;;;;;;26.74;36.50;100835.00;4979591;28;789;-31
2021/06/06 01:30:47;;;;;;;;;;;;;;;26.81;36.27;100832.44;4979601;28;781;-28
2021/06/06 01:33:21;;;;;;;;;;;;;;;26.85;36.20;100822.94;4978917;28;1013;-31
2021/06/06 01:35:50;;;;;;;;;;;;;;;26.83;36.22;100831.22;4996703;28;749;-30
2021/06/06 01:38:20;;;;;;;;;;;;;;;26.77;36.52;100822.00;4979616;28;777;-32
2021/06/06 01:40:45;;;;;;;;;;;;;;;26.84;36.53;100830.19;4996608;28;1965;-29
2021/06/06 01:43:12;;;;;;;;;;;;;;;26.85;36.35;100826.50;4980782;28;840;-28
2021/06/06 01:45:39;;;;;;;;;;;;;;;26.83;36.18;100823.13;4983093;28;773;-31
2021/06/06 01:48:05;;;;;;;;;;;;;;;26.90;36.34;100825.97;4982149;28;1004;-29
2021/06/06 01:50:31;;;;;;;;;;;;;;;26.86;36.37;100830.06;5000322;28;908;-27
2021/06/06 01:52:57;;;;;;;;;;;;;;;26.86;36.11;100820.06;5012011;28;1149;-32
2021/06/06 01:55:23;;;;;;;;;;;;;;;26.86;36.26;100821.94;5039237;28;836;-29
2021/06/06 01:57:49;;;;;;;;;;;;;;;26.86;36.09;100828.16;5021943;28;816;-33
2021/06/06 02:00:24;;;;;;;;;;;;;;;26.86;36.35;100824.66;5022308;28;1977;-31
2021/06/06 02:02:49;;;;;;;;;;;;;;;26.84;36.61;100826.69;5022083;28;975;-33
2021/06/06 02:05:15;;;;;;;;;;;;;;;26.85;36.50;100825.66;5000160;28;729;-30
2021/06/06 02:07:41;;;;;;;;;;;;;;;26.89;36.53;100824.28;5000108;28;1559;-30
2021/06/06 02:10:09;;;;;;;;;;;;;;;26.88;36.38;100826.13;4982309;28;903;-31
2021/06/06 02:12:35;;;;;;;;;;;;;;;26.87;36.37;100820.91;4982816;28;1078;-31
2021/06/06 02:15:00;;;;;;;;;;;;;;;26.92;36.50;100813.13;4982744;28;773;-29
2021/06/06 02:17:30;;;;;;;;;;;;;;;26.87;36.42;100815.53;4999046;28;969;-27
2021/06/06 02:19:56;;;;;;;;;;;;;;;26.90;36.52;100815.16;4999987;28;808;-32
2021/06/06 02:22:22;;;;;;;;;;;;;;;26.88;36.40;100814.50;4999738;28;1914;-32
2021/06/06 02:24:47;;;;;;;;;;;;;;;26.86;36.33;100811.97;4982174;28;741;-26
2021/06/06 02:27:12;;;;;;;;;;;;;;;26.93;36.54;100813.94;4999824;28;799;-26
2021/06/06 02:29:47;;;;;;;;;;;;;;;26.92;36.59;100806.88;4999670;28;797;-29
2021/06/06 02:32:31;;;;;;;;;;;;;;;26.89;36.48;100802.69;4981656;28;949;-30
2021/06/06 02:35:10;;;;;;;;;;;;;;;26.89;36.42;100808.09;4999626;28;740;-28
2021/06/06 02:37:55;;;;;;;;;;;;;;;26.85;36.68;100802.22;4999538;28;856;-32
2021/06/06 02:40:20;;;;;;;;;;;;;;;26.85;36.63;100807.59;4982246;28;1957;-32
2021/06/06 02:42:45;;;;;;;;;;;;;;;26.86;36.43;100806.56;4999509;28;772;-31
2021/06/06 02:45:13;;;;;;;;;;;;;;;26.88;36.70;100803.69;4982490;28;764;-26
2021/06/06 02:47:39;;;;;;;;;;;;;;;26.92;36.82;100799.63;5001324;28;937;-30
2021/06/06 02:50:06;;;;;;;;;;;;;;;26.93;36.70;100797.75;4998630;28;824;-27
2021/06/06 02:52:40;;;;;;;;;;;;;;;26.95;36.43;100801.97;5003753;28;1165;-28
2021/06/06 02:55:09;;;;;;;;;;;;;;;26.93;36.05;100805.84;5021128;28;866;-28
2021/06/06 02:57:35;;;;;;;;;;;;;;;25.94;33.92;100803.50;5038592;28;765;-27
2021/06/06 03:00:05;;;;;;;;;;;;;;;25.50;34.54;100804.75;5021348;28;808;-28
2021/06/06 03:02:35;;;;;;;;;;;;;;;25.33;34.61;100806.59;5026428;28;920;-29
2021/06/06 03:05:00;;;;;;;;;;;;;;;25.04;34.90;100800.75;4982020;28;781;-28
2021/06/06 03:07:27;;;;;;;;;;;;;;;24.91;34.95;100803.91;4981739;28;773;-28
2021/06/06 03:09:53;;;;;;;;;;;;;;;24.75;35.20;100797.50;4981574;28;769;-27
2021/06/06 03:12:18;;;;;;;;;;;;;;;24.66;35.11;100798.47;4998960;28;848;-32
2021/06/06 03:14:44;;;;;;;;;;;;;;;24.63;35.49;100796.97;4981484;28;1561;-28
2021/06/06 03:17:14;;;;;;;;;;;;;;;24.55;35.33;100797.78;4982126;28;957;-29
2021/06/06 03:19:40;;;;;;;;;;;;;;;24.36;34.98;100793.53;5000434;28;923;-31
2021/06/06 03:22:06;;;;;;;;;;;;;;;24.30;35.36;100792.34;5000901;28;1973;-29
2021/06/06 03:24:34;;;;;;;;;;;;;;;24.19;36.02;100785.41;5000356;28;840;-28
2021/06/06 03:26:59;;;;;;;;;;;;;;;24.28;36.02;100783.59;5018463;28;776;-27
2021/06/06 03:29:25;;;;;;;;;;;;;;;24.27;35.89;100790.00;5000391;28;813;-27
2021/06/06 03:31:57;;;;;;;;;;;;;;;24.24;36.11;100789.47;4998539;28;945;-28
2021/06/06 03:34:23;;;;;;;;;;;;;;;24.26;36.16;100790.13;4998066;28;980;-30
2021/06/06 03:36:48;;;;;;;;;;;;;;;24.26;36.28;100795.50;4997885;28;804;-28
2021/06/06 03:39:15;;;;;;;;;;;;;;;24.24;36.17;100790.28;4998187;28;713;-30
2021/06/06 03:41:40;;;;;;;;;;;;;;;24.09;36.06;100790.03;4998457;28;1969;-30
2021/06/06 03:44:05;;;;;;;;;;;;;;;23.85;36.55;100781.72;4998206;28;780;-28
2021/06/06 03:46:31;;;;;;;;;;;;;;;23.86;36.57;100774.47;4980540;28;765;-29
2021/06/06 03:48:56;;;;;;;;;;;;;;;23.93;36.90;100774.69;4997616;28;953;-28
2021/06/06 03:51:22;;;;;;;;;;;;;;;23.95;37.03;100778.91;5001420;28;1176;-31
2021/06/06 03:53:47;;;;;;;;;;;;;;;24.25;37.11;100775.00;5037133;28;524;-22
2021/06/06 03:56:13;;;;;;;;;;;;;;;24.79;36.23;100774.63;5037045;28;788;-23
2021/06/06 03:58:38;;;;;;;;;;;;;;;24.89;36.52;100774.44;5037339;28;832;-27
2021/06/06 04:01:04;;;;;;;;;;;;;;;24.95;36.32;100770.28;5037216;28;1961;-25
2021/06/06 04:03:29;;;;;;;;;;;;;;;24.94;36.33;100765.94;5021357;28;987;-24
2021/06/06 04:05:54;;;;;;;;;;;;;;;25.00;36.57;100761.72;5016924;28;761;-24
2021/06/06 04:08:20;;;;;;;;;;;;;;;25.14;36.58;100761.03;5017332;28;768;-25
2021/06/06 04:10:45;;;;;;;;;;;;;;;25.17;36.62;100757.19;4999093;28;757;-23
2021/06/06 04:13:10;;;;;;;;;;;;;;;25.27;36.45;100744.38;5017408;28;1140;-23
2021/06/06 04:15:36;;;;;;;;;;;;;;;25.38;36.51;100739.63;5017219;28;832;-23
2021/06/06 04:18:27;;;;;;;;;;;;;;;25.38;36.49;100753.09;5005982;28;969;-23
2021/06/06 04:20:52;;;;;;;;;;;;;;;25.38;36.54;100743.16;4994401;28;1910;-25
2021/06/06 04:23:18;;;;;;;;;;;;;;;25.42;36.69;100746.38;4979590;28;860;-24
2021/06/06 04:25:44;;;;;;;;;;;;;;;25.44;36.63;100742.47;4997519;28;764;-26
2021/06/06 04:28:09;;;;;;;;;;;;;;;25.56;36.48;100742.09;4997990;28;769;-24
2021/06/06 04:30:34;;;;;;;;;;;;;;;25.42;36.59;100735.59;4997398;28;787;-26
2021/06/06 04:33:03;;;;;;;;;;;;;;;25.43;36.52;100729.19;4996940;28;949;-26
2021/06/06 04:35:29;;;;;;;;;;;;;;;25.41;36.71;100733.91;4997501;28;824;-25
2021/06/06 04:37:54;;;;;;;;;;;;;;;25.42;36.71;100730.22;4997219;28;776;-25
2021/06/06 04:40:19;;;;;;;;;;;;;;;25.45;36.82;100740.63;4997378;28;1902;-26
2021/06/06 04:42:45;;;;;;;;;;;;;;;25.41;36.90;100744.66;4997880;28;828;-25
2021/06/06 04:45:11;;;;;;;;;;;;;;;25.46;36.95;100752.25;4996578;28;828;-24
2021/06/06 04:47:37;;;;;;;;;;;;;;;25.49;36.75;100757.28;4979667;28;922;-24
2021/06/06 04:50:03;;;;;;;;;;;;;;;25.55;36.83;100757.44;4997721;28;733;-23
2021/06/06 04:52:35;;;;;;;;;;;;;;;25.69;36.62;100757.78;5017983;28;1180;-26
2021/06/06 04:55:01;;;;;;;;;;;;;;;25.71;36.77;100763.81;5036322;28;823;-26
2021/06/06 04:57:26;;;;;;;;;;;;;;;25.74;36.83;100751.88;5037005;28;792;-25
2021/06/06 04:59:51;;;;;;;;;;;;;;;25.75;37.05;100759.78;5036294;28;788;-27
2021/06/06 05:02:17;;;;;;;;;;;;;;;25.77;37.31;100756.91;5028714;28;1906;-24
2021/06/06 05:04:42;;;;;;;;;;;;;;;25.75;37.09;100753.53;4997065;28;781;-26
2021/06/06 05:07:07;;;;;;;;;;;;;;;25.67;37.51;100760.63;4997126;28;816;-26
2021/06/06 05:09:35;;;;;;;;;;;;;;;25.77;37.42;100762.28;4996930;28;974;-25
2021/06/06 05:12:01;;;;;;;;;;;;;;;25.73;37.58;100760.94;4996999;28;749;-28
2021/06/06 05:14:26;;;;;;;;;;;;;;;25.71;37.48;100761.13;4996543;28;1262;-24
2021/06/06 05:16:52;;;;;;;;;;;;;;;25.74;37.24;100760.78;4998321;28;969;-25
2021/06/06 05:19:17;;;;;;;;;;;;;;;25.64;37.59;100763.66;5000911;28;1048;-26
2021/06/06 05:21:42;;;;;;;;;;;;;;;25.65;37.48;100768.06;5000752;28;1922;-25
2021/06/06 05:24:08;;;;;;;;;;;;;;;25.71;37.27;100760.31;5001374;28;793;-24
2021/06/06 05:26:33;;;;;;;;;;;;;;;25.73;37.39;100763.63;5000788;28;741;-24
2021/06/06 05:28:58;;;;;;;;;;;;;;;25.80;37.28;100762.78;4982999;28;1108;-25
2021/06/06 05:31:24;;;;;;;;;;;;;;;25.82;37.32;100759.94;5000850;28;805;-25
2021/06/06 05:33:49;;;;;;;;;;;;;;;25.81;37.16;100763.63;5000169;28;984;-25
2021/06/06 05:36:15;;;;;;;;;;;;;;;25.71;37.39;100769.22;5000413;28;761;-26
2021/06/06 05:38:40;;;;;;;;;;;;;;;25.73;37.36;100764.50;4982890;28;846;-25
2021/06/06 05:41:06;;;;;;;;;;;;;;;25.81;37.29;100763.63;5000314;28;1910;-26
2021/06/06 05:43:31;;;;;;;;;;;;;;;25.82;37.10;100759.94;5000600;28;759;-24
2021/06/06 05:45:56;;;;;;;;;;;;;;;25.78;36.86;100762.13;4999834;28;840;-26
2021/06/06 05:48:21;;;;;;;;;;;;;;;25.79;37.02;100755.72;5000077;28;1000;-24
2021/06/06 05:50:47;;;;;;;;;;;;;;;25.87;36.84;100759.41;5000066;28;860;-25
2021/06/06 05:53:13;;;;;;;;;;;;;;;25.86;36.97;100757.72;5033645;28;1188;-28
2021/06/06 05:55:38;;;;;;;;;;;;;;;25.92;36.85;100752.44;5039386;28;844;-24
2021/06/06 05:58:04;;;;;;;;;;;;;;;25.94;36.66;100751.44;5039473;28;814;-25
2021/06/06 06:00:31;;;;;;;;;;;;;;;25.95;36.75;100753.97;5038960;28;1905;-26
2021/06/06 06:02:56;;;;;;;;;;;;;;;25.99;36.92;100751.78;5020944;28;1027;-27
2021/06/06 06:05:21;;;;;;;;;;;;;;;26.03;36.71;100750.38;5000017;28;831;-26
2021/06/06 06:07:46;;;;;;;;;;;;;;;25.97;36.80;100751.09;4999692;28;847;-29
2021/06/06 06:10:13;;;;;;;;;;;;;;;26.02;36.93;100754.13;4999974;28;895;-28
2021/06/06 06:12:38;;;;;;;;;;;;;;;26.01;37.14;100747.88;5000342;28;1054;-25
2021/06/06 06:15:04;;;;;;;;;;;;;;;26.03;36.99;100745.84;4999293;28;932;-27
2021/06/06 06:17:30;;;;;;;;;;;;;;;26.06;36.74;100741.94;4999532;28;1016;-26
2021/06/06 06:19:55;;;;;;;;;;;;;;;26.07;37.16;100737.41;4999915;28;840;-27
2021/06/06 06:22:20;;;;;;;;;;;;;;;26.09;37.07;100743.47;4999303;28;1975;-27
2021/06/06 06:24:45;;;;;;;;;;;;;;;26.08;37.04;100741.78;4999803;28;757;-27
2021/06/06 06:27:11;;;;;;;;;;;;;;;26.10;37.22;100742.44;4999568;28;829;-28
2021/06/06 06:29:36;;;;;;;;;;;;;;;26.09;37.18;100749.69;4998786;28;808;-28
2021/06/06 06:32:02;;;;;;;;;;;;;;;26.13;37.19;100742.94;4998857;28;969;-27
2021/06/06 06:34:27;;;;;;;;;;;;;;;26.14;37.19;100744.59;4999459;28;803;-26
2021/06/06 06:36:53;;;;;;;;;;;;;;;26.19;37.05;100738.72;4999105;28;772;-27
2021/06/06 06:39:18;;;;;;;;;;;;;;;26.16;36.93;100747.13;5000003;28;836;-30
2021/06/06 06:41:43;;;;;;;;;;;;;;;26.14;37.14;100738.38;4999260;28;1899;-28
2021/06/06 06:44:08;;;;;;;;;;;;;;;26.15;37.13;100732.81;4999345;28;780;-26
2021/06/06 06:46:34;;;;;;;;;;;;;;;26.19;36.95;100732.47;4999185;28;833;-25
2021/06/06 06:48:59;;;;;;;;;;;;;;;26.20;37.06;100743.06;4998788;28;992;-27
2021/06/06 06:51:25;;;;;;;;;;;;;;;26.25;36.98;100742.53;5003066;28;1059;-26
2021/06/06 06:53:54;;;;;;;;;;;;;;;26.24;36.92;100736.28;5038869;28;760;-28
2021/06/06 06:56:19;;;;;;;;;;;;;;;26.29;37.02;100736.59;5037925;28;875;-26
2021/06/06 06:58:45;;;;;;;;;;;;;;;26.31;36.72;100732.91;5038108;28;855;-30
2021/06/06 07:01:10;;;;;;;;;;;;;;;26.29;36.60;100731.22;5038378;28;1961;-25
2021/06/06 07:03:35;;;;;;;;;;;;;;;26.37;36.74;100724.13;5009291;28;1050;-27
2021/06/06 07:06:02;;;;;;;;;;;;;;;26.25;36.90;100718.25;4998855;28;753;-27
2021/06/06 07:08:28;;;;;;;;;;;;;;;26.32;37.03;100721.94;4999109;28;820;-28
2021/06/06 07:10:53;;;;;;;;;;;;;;;26.34;37.07;100721.78;4998643;28;1019;-27
2021/06/06 07:13:19;;;;;;;;;;;;;;;26.38;36.82;100713.16;4998167;28;1052;-28
2021/06/06 07:15:44;;;;;;;;;;;;;;;26.37;37.01;100722.28;4998800;28;761;-26
2021/06/06 07:18:10;;;;;;;;;;;;;;;26.40;36.73;100731.84;4998045;28;993;-27
2021/06/06 07:20:36;;;;;;;;;;;;;;;26.46;36.70;100724.91;4998587;28;1910;-28
2021/06/06 07:23:05;;;;;;;;;;;;;;;26.47;36.83;100721.19;4998444;28;820;-29
2021/06/06 07:25:30;;;;;;;;;;;;;;;26.45;36.77;100721.38;4998633;28;807;-29
2021/06/06 07:27:56;;;;;;;;;;;;;;;26.50;36.56;100723.53;4998299;28;760;-27
2021/06/06 07:30:23;;;;;;;;;;;;;;;26.50;36.59;100723.53;4998753;28;856;-30
2021/06/06 07:32:48;;;;;;;;;;;;;;;26.50;36.58;100728.91;4997969;28;937;-27
2021/06/06 07:35:14;;;;;;;;;;;;;;;26.50;36.71;100727.06;4998593;28;777;-28
2021/06/06 07:37:39;;;;;;;;;;;;;;;26.52;36.39;100724.19;4998180;28;868;-27
2021/06/06 07:40:05;;;;;;;;;;;;;;;26.54;36.60;100724.88;4997815;28;764;-30
2021/06/06 07:42:32;;;;;;;;;;;;;;;26.59;36.35;100727.00;4997851;28;1981;-27
2021/06/06 07:44:57;;;;;;;;;;;;;;;26.58;36.65;100725.31;4997870;28;482;-28
2021/06/06 07:47:22;;;;;;;;;;;;;;;26.63;36.40;100717.53;4979850;28;910;-27
2021/06/06 07:49:47;;;;;;;;;;;;;;;26.60;36.59;100721.44;4997684;28;988;-28
2021/06/06 07:52:13;;;;;;;;;;;;;;;26.65;36.27;100721.75;5015132;28;1039;-29
2021/06/06 07:54:38;;;;;;;;;;;;;;;26.63;36.44;100722.91;5037516;28;811;-31
2021/06/06 07:57:03;;;;;;;;;;;;;;;26.62;36.41;100723.97;5036953;28;823;-28
2021/06/06 07:59:29;;;;;;;;;;;;;;;26.64;36.27;100725.44;5019473;28;1101;-27
2021/06/06 08:01:54;;;;;;;;;;;;;;;26.70;36.01;100723.03;5034771;28;1898;-27
2021/06/06 08:04:19;;;;;;;;;;;;;;;26.75;35.63;100720.63;4997961;28;956;-29
2021/06/06 08:06:44;;;;;;;;;;;;;;;26.68;35.85;100716.97;4997834;28;840;-28
2021/06/06 08:09:10;;;;;;;;;;;;;;;26.74;35.44;100721.69;4998053;28;773;-27
2021/06/06 08:11:35;;;;;;;;;;;;;;;26.76;35.74;100725.00;4997253;28;733;-29
2021/06/06 08:14:01;;;;;;;;;;;;;;;26.83;35.58;100731.38;4997589;28;1339;-28
2021/06/06 08:16:26;;;;;;;;;;;;;;;26.90;35.19;100721.53;4997633;28;780;-28
2021/06/06 08:18:51;;;;;;;;;;;;;;;26.88;35.28;100723.56;4997221;28;969;-32
2021/06/06 08:21:18;;;;;;;;;;;;;;;26.85;35.08;100723.94;4997136;28;1907;-27
2021/06/06 08:23:43;;;;;;;;;;;;;;;26.93;34.98;100725.72;4997584;28;812;-30
2021/06/06 08:26:09;;;;;;;;;;;;;;;26.87;35.01;100730.00;4997160;28;740;-29
2021/06/06 08:28:35;;;;;;;;;;;;;;;26.93;34.95;100731.13;4997409;28;993;-29
2021/06/06 08:31:01;;;;;;;;;;;;;;;26.98;34.60;100728.72;4997573;28;769;-32
2021/06/06 08:33:27;;;;;;;;;;;;;;;27.05;34.73;100730.69;4997299;28;929;-29
2021/06/06 08:35:57;;;;;;;;;;;;;;;27.04;34.52;100724.50;4997284;28;833;-30
2021/06/06 08:38:23;;;;;;;;;;;;;;;27.03;34.43;100739.00;4997217;28;755;-27
2021/06/06 08:41:08;;;;;;;;;;;;;;;27.12;34.12;100727.09;4997372;28;1898;-30
2021/06/06 08:43:39;;;;;;;;;;;;;;;27.15;33.99;100723.19;4996633;28;1811;-29
2021/06/06 08:46:08;;;;;;;;;;;;;;;27.22;33.59;100732.25;4997328;28;760;-26
2021/06/06 08:48:33;;;;;;;;;;;;;;;27.21;33.59;100727.84;5009605;28;941;-29
2021/06/06 08:51:04;;;;;;;;;;;;;;;27.20;33.65;100728.88;5016586;28;760;-28
2021/06/06 08:53:36;;;;;;;;;;;;;;;27.24;33.08;100726.66;5018141;28;919;-29
2021/06/06 08:56:18;;;;;;;;;;;;;;;27.22;32.99;100728.69;5018814;28;808;-28
2021/06/06 08:58:46;;;;;;;;;;;;;;;27.19;32.83;100723.66;5036577;28;836;-26
2021/06/06 09:01:18;;;;;;;;;;;;;;;27.17;33.11;100731.94;5036254;28;1898;-26
2021/06/06 09:03:43;;;;;;;;;;;;;;;27.17;33.25;100736.50;5019050;28;1101;-26
2021/06/06 09:06:13;;;;;;;;;;;;;;;27.18;33.08;100732.78;4998623;28;797;-30
2021/06/06 09:08:39;;;;;;;;;;;;;;;27.11;33.21;100727.28;4999649;28;911;-26
2021/06/06 09:11:14;;;;;;;;;;;;;;;27.02;33.73;100732.78;5016460;28;757;-25
2021/06/06 09:13:39;;;;;;;;;;;;;;;26.90;34.73;100740.44;5016569;28;1168;-26
2021/06/06 09:16:10;;;;;;;;;;;;;;;26.90;35.10;100739.59;5016692;28;784;-28
2021/06/06 09:18:36;;;;;;;;;;;;;;;26.93;35.42;100743.75;4999554;28;889;-28
2021/06/06 09:21:30;;;;;;;;;;;;;;;26.99;35.36;100737.66;4996823;28;1914;-27
2021/06/06 09:24:09;;;;;;;;;;;;;;;27.01;35.15;100735.59;4984238;28;1443;-27
2021/06/06 09:26:34;;;;;;;;;;;;;;;27.05;35.45;100728.00;4996730;28;816;-27
2021/06/06 09:29:02;;;;;;;;;;;;;;;27.00;35.48;100720.44;4996714;28;880;-24
2021/06/06 09:31:28;;;;;;;;;;;;;;;26.96;35.86;100722.66;4997362;28;816;-29
2021/06/06 09:33:53;;;;;;;;;;;;;;;27.03;35.84;100722.78;4996388;28;950;-27
2021/06/06 09:36:20;;;;;;;;;;;;;;;27.07;36.06;100723.25;4996484;28;859;-24
2021/06/06 09:38:46;;;;;;;;;;;;;;;26.99;36.36;100722.28;4997253;28;791;-24
2021/06/06 09:41:22;;;;;;;;;;;;;;;27.00;36.45;100728.53;4979438;28;1906;-24
2021/06/06 09:44:00;;;;;;;;;;;;;;;26.97;36.24;100720.78;4979544;28;1308;-28
2021/06/06 09:46:30;;;;;;;;;;;;;;;27.04;36.30;100729.88;4996829;28;783;-24
2021/06/06 09:48:56;;;;;;;;;;;;;;;27.01;36.33;100725.66;4996059;28;1001;-27
2021/06/06 09:51:28;;;;;;;;;;;;;;;27.05;36.47;100730.69;4982576;28;1475;-25
2021/06/06 09:53:57;;;;;;;;;;;;;;;27.03;36.42;100733.59;5036397;28;796;-24
2021/06/06 09:56:29;;;;;;;;;;;;;;;26.98;36.68;100734.09;5035730;28;862;-26
2021/06/06 09:58:55;;;;;;;;;;;;;;;26.95;36.50;100741.72;5036161;28;819;-26
2021/06/06 10:01:34;;;;;;;;;;;;;;;27.08;36.30;100743.84;5018116;28;1899;-27
2021/06/06 10:04:00;;;;;;;;;;;;;;;27.17;35.65;100739.19;4984145;28;941;-26
2021/06/06 10:06:36;;;;;;;;;;;;;;;27.09;35.50;100732.84;5000320;28;745;-25
2021/06/06 10:09:01;;;;;;;;;;;;;;;26.98;35.79;100742.22;5000349;28;733;-27
2021/06/06 10:11:31;;;;;;;;;;;;;;;26.92;35.91;100745.66;5000056;28;764;-29
2021/06/06 10:13:56;;;;;;;;;;;;;;;26.92;36.16;100737.53;4982535;28;1091;-24
2021/06/06 10:16:26;;;;;;;;;;;;;;;26.95;35.95;100742.56;4982188;28;779;-24
2021/06/06 10:19:11;;;;;;;;;;;;;;;26.92;36.41;100753.75;4981830;28;1450;-25
2021/06/06 10:21:37;;;;;;;;;;;;;;;26.89;36.18;100748.72;4999380;28;1910;-25
2021/06/06 10:24:02;;;;;;;;;;;;;;;26.89;36.25;100749.53;4981939;28;862;-23
2021/06/06 10:27:02;;;;;;;;;;;;;;;26.89;36.22;100751.41;4999736;28;933;-24
2021/06/06 10:29:27;;;;;;;;;;;;;;;26.95;36.19;100752.53;4967512;28;1312;-27
2021/06/06 10:32:01;;;;;;;;;;;;;;;26.99;36.26;100753.84;4999599;28;993;-28
2021/06/06 10:34:30;;;;;;;;;;;;;;;26.92;36.11;100748.34;4981462;28;1099;-27
2021/06/06 10:36:55;;;;;;;;;;;;;;;26.93;36.47;100741.91;4997951;28;972;-29
2021/06/06 10:39:25;;;;;;;;;;;;;;;27.02;36.32;100742.72;4997902;28;811;-28
2021/06/06 10:41:55;;;;;;;;;;;;;;;26.90;36.57;100739.59;4999226;28;1894;-28
2021/06/06 10:44:34;;;;;;;;;;;;;;;26.96;36.56;100740.72;4997783;28;1057;-28
2021/06/06 10:47:01;;;;;;;;;;;;;;;26.97;36.30;100739.69;4997625;28;1545;-30
2021/06/06 10:49:31;;;;;;;;;;;;;;;26.97;36.75;100732.44;4981613;28;796;-29
2021/06/06 10:52:04;;;;;;;;;;;;;;;26.93;36.46;100732.97;5011617;28;1106;-29
2021/06/06 10:54:32;;;;;;;;;;;;;;;26.94;36.60;100729.25;5038268;28;779;-32
2021/06/06 10:56:59;;;;;;;;;;;;;;;27.11;36.42;100735.41;5038578;28;765;-33
2021/06/06 10:59:42;;;;;;;;;;;;;;;26.99;36.26;100741.19;5020294;28;837;-31
2021/06/06 11:02:09;;;;;;;;;;;;;;;27.02;36.24;100735.47;5032733;28;1902;-32
2021/06/06 11:04:46;;;;;;;;;;;;;;;27.09;35.82;100740.94;4998955;28;816;-32
2021/06/06 11:07:34;;;;;;;;;;;;;;;27.12;35.74;100734.34;4999471;28;777;-34
2021/06/06 11:10:18;;;;;;;;;;;;;;;27.09;36.08;100738.25;4990750;28;1524;-33
2021/06/06 11:12:44;;;;;;;;;;;;;;;27.09;35.87;100735.53;4998843;28;1211;-30
2021/06/06 11:15:28;;;;;;;;;;;;;;;27.17;36.04;100740.06;4998677;28;740;-30
2021/06/06 11:17:53;;;;;;;;;;;;;;;27.13;35.94;100744.13;4998358;28;961;-32
2021/06/06 11:20:27;;;;;;;;;;;;;;;27.14;35.80;100749.34;4980831;28;1269;-30
2021/06/06 11:22:53;;;;;;;;;;;;;;;27.10;35.71;100742.66;4998892;28;849;-34
2021/06/06 11:25:29;;;;;;;;;;;;;;;27.11;35.68;100733.50;4980638;28;833;-34
2021/06/06 11:27:59;;;;;;;;;;;;;;;27.14;35.70;100737.72;4981133;28;853;-32
2021/06/06 11:30:24;;;;;;;;;;;;;;;27.07;36.15;100737.63;4981689;28;845;-31
2021/06/06 11:32:55;;;;;;;;;;;;;;;27.11;35.80;100735.41;4998141;28;993;-32
2021/06/06 11:35:30;;;;;;;;;;;;;;;27.07;35.88;100728.66;4998518;28;801;-30
2021/06/06 11:38:14;;;;;;;;;;;;;;;27.10;35.79;100731.84;4980983;28;1293;-33
2021/06/06 11:40:43;;;;;;;;;;;;;;;27.06;35.95;100730.53;4998000;28;1973;-33
2021/06/06 11:43:23;;;;;;;;;;;;;;;27.18;36.04;100730.91;4998566;28;806;-32
2021/06/06 11:45:51;;;;;;;;;;;;;;;27.22;36.05;100739.50;4998423;28;784;-34
2021/06/06 11:48:27;;;;;;;;;;;;;;;27.19;35.62;100737.16;4980391;28;1095;-31
2021/06/06 11:50:53;;;;;;;;;;;;;;;27.17;35.67;100734.66;4981064;28;734;-33
2021/06/06 11:53:35;;;;;;;;;;;;;;;27.21;35.23;100733.25;5033057;28;1145;-32
2021/06/06 11:56:08;;;;;;;;;;;;;;;27.19;35.68;100732.63;5020068;28;761;-34
2021/06/06 11:58:35;;;;;;;;;;;;;;;27.25;35.92;100728.31;5020017;28;780;-29
2021/06/06 12:01:03;;;;;;;;;;;;;;;27.34;35.57;100732.59;5019329;28;1959;-28
2021/06/06 12:03:33;;;;;;;;;;;;;;;27.32;35.69;100740.06;5010428;28;971;-32
2021/06/06 12:06:25;;;;;;;;;;;;;;;27.38;35.81;100738.47;4998066;28;784;-34
2021/06/06 12:08:52;;;;;;;;;;;;;;;27.44;35.60;100745.00;4991388;28;1108;-33
2021/06/06 12:11:20;;;;;;;;;;;;;;;27.44;35.43;100747.72;4998003;28;793;-32
2021/06/06 12:13:49;;;;;;;;;;;;;;;27.45;35.32;100743.97;4997441;28;1306;-34
2021/06/06 12:16:17;;;;;;;;;;;;;;;27.45;35.54;100742.13;4997460;28;697;-30
2021/06/06 12:18:43;;;;;;;;;;;;;;;27.50;35.30;100747.81;4997331;28;1073;-34
2021/06/06 12:21:08;;;;;;;;;;;;;;;27.49;35.38;100738.00;4980244;28;1911;-30
2021/06/06 12:23:35;;;;;;;;;;;;;;;27.43;35.41;100736.06;4997350;28;777;-28
2021/06/06 12:26:08;;;;;;;;;;;;;;;27.39;35.32;100741.00;4997387;28;750;-28
2021/06/06 12:28:35;;;;;;;;;;;;;;;27.46;35.29;100734.88;4980122;28;820;-27
2021/06/06 12:31:02;;;;;;;;;;;;;;;27.44;35.59;100732.34;4979746;28;829;-33
2021/06/06 12:33:28;;;;;;;;;;;;;;;27.40;35.50;100733.72;4996626;28;929;-34
2021/06/06 12:35:54;;;;;;;;;;;;;;;27.40;35.14;100725.63;4997278;28;735;-33
2021/06/06 12:38:20;;;;;;;;;;;;;;;27.36;35.53;100727.03;4979271;28;825;-33
2021/06/06 12:40:45;;;;;;;;;;;;;;;27.39;35.06;100722.09;4980157;28;1973;-32
2021/06/06 12:43:12;;;;;;;;;;;;;;;27.36;35.38;100716.25;4979859;28;821;-26
2021/06/06 12:45:40;;;;;;;;;;;;;;;27.35;34.99;100725.34;4979877;28;1009;-29
2021/06/06 12:48:10;;;;;;;;;;;;;;;27.38;34.61;100714.16;4979361;28;906;-29
2021/06/06 12:50:37;;;;;;;;;;;;;;;27.41;34.76;100731.88;4997139;28;757;-30
2021/06/06 12:53:06;;;;;;;;;;;;;;;27.43;34.58;100725.25;5027529;28;1093;-33
2021/06/06 12:55:35;;;;;;;;;;;;;;;27.49;34.65;100727.22;5018710;28;919;-31